Flight Track Log - Related Links

Times and Time Zones

All times are in EDT time to prevent confusion due to time zone crossing. See the N825TB flight status page for this flight to view local times or setup timezone preferences in your user account.

Time Position Orientation Groundspeed Altitude Reporting Facility
EDT Latitude Longitude Course Direction KTS MPH feet Rate Location/Type
Sat 12:03:51 PM 28.4500 -82.4667 270° West 190 219 800  Level Tampa TRACON
Sat 12:04:27 PM 28.4500 -82.5000 270° West 223 257 2,300 2,471 Climbing Tampa TRACON
Sat 12:05:33 PM 28.4167 -82.5667 240° Southwest 238 274 5,000 2,476 Climbing Tampa TRACON
Sat 12:06:33 PM 28.3500 -82.5833 192° South 261 300 7,500 2,500 Climbing Tampa TRACON
Sat 12:07:33 PM 28.2667 -82.5833 180° South 307 353 10,000 1,693 Climbing Tampa TRACON
Sat 12:09:16 PM 28.1111 -82.5900 182° South 346 398 12,100 1,325 Climbing Miami Center
Sat 12:10:16 PM 28.0064 -82.5989 184° South 364 419 13,600 1,650 Climbing Miami Center
Sat 12:11:16 PM 27.9008 -82.5842 173° South 379 436 15,400 1,750 Climbing Miami Center
Sat 12:12:16 PM 27.8022 -82.5392 158° South 379 436 17,100 1,750 Climbing Miami Center
Sat 12:13:16 PM 27.6978 -82.4894 157° South 396 456 18,900 1,700 Climbing Miami Center
Sat 12:14:16 PM 27.6017 -82.4450 158° South 409 471 20,500 1,650 Climbing Miami Center
Sat 12:15:16 PM 27.4997 -82.3839 152° Southeast 423 487 22,200 1,700 Climbing Miami Center
Sat 12:16:16 PM 27.3947 -82.2900 142° Southeast 432 497 23,900 900 Climbing Miami Center
Sat 12:17:16 PM 27.2936 -82.2036 143° Southeast 456 525 24,000 50 Climbing Miami Center
Sat 12:18:16 PM 27.1944 -82.1150 142° Southeast 456 525 24,000  Level Miami Center
Sat 12:19:16 PM 27.1075 -82.0364 141° Southeast 456 525 24,000  Level Miami Center
Sat 12:20:16 PM 27.0106 -81.9481 141° Southeast 456 525 24,000  Level Miami Center
Sat 12:21:16 PM 26.9133 -81.8625 142° Southeast 456 525 24,000  Level Miami Center
Sat 12:22:16 PM 26.8161 -81.7744 141° Southeast 456 525 24,000  Level Miami Center
Sat 12:23:16 PM 26.7186 -81.6936 143° Southeast 451 519 24,000  Level Miami Center
Sat 12:24:16 PM 26.6214 -81.6061 141° Southeast 451 519 24,000  Level Miami Center
Sat 12:25:16 PM 26.5136 -81.5136 142° Southeast 451 519 24,000 -450 Level Miami Center
Sat 12:26:16 PM 26.4306 -81.4361 140° Southeast 443 510 23,100 -1,650 Descending Miami Center
Sat 12:27:16 PM 26.3372 -81.3514 141° Southeast 437 503 20,700 -2,300 Descending Miami Center
Sat 12:28:16 PM 26.2436 -81.2714 143° Southeast 430 495 18,500 -2,263 Descending Miami Center
Sat 12:29:10 PM 26.1497 -81.1939 143° Southeast 392 451 16,400 -2,200 Descending Miami Center
Sat 12:29:16 PM 26.1558 -81.1964 340° North 414 476 16,300 -2,108 Descending Miami Center
Sat 12:29:47 PM 26.0967 -81.1528 146° Southeast 386 444 15,100 -2,000 Descending Miami Center
Sat 12:30:16 PM 26.0706 -81.1217 133° Southeast 399 459 14,300 -1,869 Descending Miami Center
Sat 12:30:48 PM 26.0172 -81.0828 147° Southeast 353 406 13,200 -1,800 Descending Miami Center
Sat 12:31:16 PM 25.9950 -81.0542 131° Southeast 365 420 12,500 -1,700 Descending Miami Center
Sat 12:31:48 PM 25.9481 -81.0203 147° Southeast 315 362 11,500 -1,700 Descending Miami Center
Sat 12:32:16 PM 25.9258 -80.9986 139° Southeast 339 390 10,800 -1,377 Descending Miami Center
Sat 12:32:49 PM 25.8786 -80.9625 145° Southeast 306 352 10,100 -1,100 Descending Miami Center
Sat 12:33:16 PM 25.8606 -80.9411 133° Southeast 320 368 9,700 -1,452 Descending Miami Center
Sat 12:33:51 PM 25.8136 -80.8978 140° Southeast 296 341 8,600 -1,500 Descending Miami Center
Sat 12:34:16 PM 25.8017 -80.8792 125° Southeast 301 346 8,200 -1,475 Descending Miami Center
Sat 12:34:52 PM 25.7592 -80.8314 135° Southeast 287 330 7,100 -1,600 Descending Miami Center
Sat 12:35:16 PM 25.7469 -80.8150 130° Southeast 289 333 6,600 -1,475 Descending Miami Center
Sat 12:35:53 PM 25.7044 -80.7697 136° Southeast 284 327 5,600 -1,400 Descending Miami Center
Sat 12:36:16 PM 25.6944 -80.7511 121° Southeast 283 326 5,200 -984 Descending Miami Center
Sat 12:36:54 PM 25.6622 -80.7061 128° Southeast 221 254 4,600 -800 Descending Miami Center
Sat 12:37:16 PM 25.6544 -80.6853 112° Southeast 253 291 4,400 -627 Descending Miami Center
Sat 12:38:01 PM 25.6386 -80.6503 117° Southeast 170 196 3,900 -600 Descending Miami Center
Sat 12:38:16 PM 25.6389 -80.6386 88° East 197 227 3,800 -857 Descending Miami Center
Sat 12:38:57 PM 25.6336 -80.5992 98° East 174 200 3,100 -1,176 Descending Miami Center
Sat 12:39:58 PM 25.6350 -80.5442 88° East 180 207 1,800 -1,030 Descending Miami Center
Sat 12:41:11 PM 25.6406 -80.4819 84° East 153 176 800 -822 Descending Miami Center
Sat 12:43:00 PM 25.6476 -80.4332 230° Southwest  Level Estimated
Sat 12:50:00 PM 25.6476 -80.4332 230° Southwest  Level Estimated

Login

Don't have an account? Register now (free) for customized features, flight alerts, and more!